createdAt,value
2023-04-14T00:00:29.961Z,24.83
2023-04-14T00:01:35.012Z,19.60
2023-04-14T00:02:37.576Z,19.67
2023-04-14T00:03:42.835Z,24.02
2023-04-14T00:04:52.274Z,21.48
2023-04-14T00:05:58.280Z,22.95
2023-04-14T00:07:00.877Z,15.50
2023-04-14T00:08:06.069Z,16.70
2023-04-14T00:09:08.435Z,15.68
2023-04-14T00:10:14.172Z,16.45
2023-04-14T00:11:16.881Z,14.63
2023-04-14T00:12:22.050Z,15.85
2023-04-14T00:13:24.657Z,16.80
2023-04-14T00:14:29.584Z,16.13
2023-04-14T00:15:34.562Z,13.80
2023-04-14T00:16:39.811Z,17.42
2023-04-14T00:19:37.332Z,15.70
2023-04-14T00:20:40.133Z,15.25
2023-04-14T00:21:45.182Z,15.18
2023-04-14T00:22:47.849Z,15.77
2023-04-14T00:23:53.485Z,16.00
2023-04-14T00:24:56.472Z,13.88
2023-04-14T00:26:02.010Z,13.40
2023-04-14T00:27:04.782Z,13.63
2023-04-14T00:28:10.204Z,11.95
2023-04-14T00:30:43.322Z,15.93
2023-04-14T00:31:46.033Z,19.65
2023-04-14T00:32:51.223Z,18.00
2023-04-14T00:33:53.769Z,16.40
2023-04-14T00:35:00.515Z,17.73
2023-04-14T00:36:03.333Z,20.60
2023-04-14T00:37:08.690Z,19.20
2023-04-14T00:38:11.794Z,20.08
2023-04-14T00:39:16.859Z,20.27
2023-04-14T00:40:19.340Z,23.75
2023-04-14T00:41:25.121Z,24.52
2023-04-14T00:42:27.851Z,32.55
2023-04-14T00:43:32.992Z,30.20
2023-04-14T00:44:35.736Z,30.55
2023-04-14T00:45:48.646Z,34.38
2023-04-14T00:46:51.933Z,24.15
2023-04-14T00:47:58.305Z,24.77
2023-04-14T00:49:02.203Z,24.85
2023-04-14T00:50:09.560Z,27.05
2023-04-14T00:52:54.996Z,29.75
2023-04-14T00:53:58.056Z,26.73
2023-04-14T00:55:05.685Z,22.02
2023-04-14T00:56:08.675Z,17.48
2023-04-14T00:57:14.579Z,16.13
2023-04-14T00:58:17.447Z,16.17
2023-04-14T00:59:23.075Z,16.30
2023-04-14T01:00:25.998Z,16.08
2023-04-14T01:01:36.767Z,16.75
2023-04-14T01:02:39.834Z,15.18
2023-04-14T01:03:45.826Z,14.70
2023-04-14T01:04:54.308Z,14.95
2023-04-14T01:06:00.406Z,15.02
2023-04-14T01:07:03.557Z,17.15
2023-04-14T01:08:09.108Z,15.50
2023-04-14T01:09:12.589Z,12.98
2023-04-14T01:10:18.560Z,17.58
2023-04-14T01:11:30.683Z,16.13
2023-04-14T01:12:52.827Z,17.38
2023-04-14T01:14:09.167Z,17.40
2023-04-14T01:15:21.346Z,17.83
2023-04-14T01:16:29.403Z,16.45
2023-04-14T01:17:47.829Z,16.80
2023-04-14T01:18:58.778Z,17.77
2023-04-14T01:20:23.534Z,18.83
2023-04-14T01:21:33.872Z,22.80
2023-04-14T01:22:43.913Z,22.77
2023-04-14T01:24:06.412Z,22.83
2023-04-14T01:25:42.400Z,20.42
2023-04-14T01:26:49.222Z,32.05
2023-04-14T01:28:06.060Z,32.20
2023-04-14T01:29:47.157Z,32.05
2023-04-14T01:31:06.818Z,37.92
2023-04-14T01:33:46.443Z,24.23
2023-04-14T01:34:54.603Z,26.92
2023-04-14T01:36:06.540Z,25.52
2023-04-14T01:37:17.484Z,28.05
2023-04-14T01:38:26.049Z,28.40
2023-04-14T01:39:37.946Z,26.02
2023-04-14T01:40:43.882Z,25.33
2023-04-14T01:41:53.132Z,31.02
2023-04-14T01:43:03.177Z,34.97
2023-04-14T01:44:11.486Z,35.13
2023-04-14T01:45:19.884Z,28.58
2023-04-14T01:46:25.266Z,26.95
2023-04-14T01:47:31.151Z,27.92
2023-04-14T01:48:36.733Z,28.85
2023-04-14T01:49:41.050Z,32.47
2023-04-14T01:50:47.483Z,31.00
2023-04-14T01:51:51.632Z,28.88
2023-04-14T01:52:58.170Z,31.45
2023-04-14T01:54:03.936Z,48.17
2023-04-14T01:55:12.088Z,32.33
2023-04-14T01:56:17.569Z,30.33
2023-04-14T01:57:24.143Z,31.70
2023-04-14T01:58:28.982Z,29.27
2023-04-14T01:59:37.140Z,31.38
2023-04-14T02:00:42.150Z,31.20
2023-04-14T02:01:50.146Z,32.47
2023-04-14T02:02:56.338Z,33.63
2023-04-14T02:04:03.219Z,32.28
2023-04-14T02:05:09.403Z,32.67
2023-04-14T02:06:17.216Z,33.28
2023-04-14T02:07:22.390Z,31.05
2023-04-14T02:08:28.703Z,35.88
2023-04-14T02:09:33.559Z,37.53
2023-04-14T02:10:41.984Z,34.85
2023-04-14T02:11:46.666Z,34.45
2023-04-14T02:12:56.529Z,37.50
2023-04-14T02:14:01.627Z,35.25
2023-04-14T02:15:12.910Z,35.42
2023-04-14T02:16:16.917Z,31.75
2023-04-14T02:17:24.655Z,32.35
2023-04-14T02:18:32.064Z,32.08
2023-04-14T02:19:38.815Z,32.80
2023-04-14T02:20:45.269Z,32.65
2023-04-14T02:21:52.796Z,31.13
2023-04-14T02:22:56.592Z,33.20
2023-04-14T02:24:02.025Z,32.38
2023-04-14T02:25:06.116Z,32.45
2023-04-14T02:26:16.384Z,31.38
2023-04-14T02:27:25.963Z,32.72
2023-04-14T02:28:35.671Z,31.60
2023-04-14T02:29:45.691Z,34.33
2023-04-14T02:30:52.789Z,34.47
2023-04-14T02:32:04.019Z,33.55
2023-04-14T02:33:10.681Z,34.90
2023-04-14T02:34:23.940Z,29.60
2023-04-14T02:35:30.112Z,31.02
2023-04-14T02:36:39.675Z,30.10
2023-04-14T02:37:45.491Z,32.80
2023-04-14T02:38:58.526Z,30.80
2023-04-14T02:40:33.843Z,31.65
2023-04-14T02:41:41.019Z,29.92
2023-04-14T02:42:52.031Z,35.58
2023-04-14T02:44:05.319Z,32.72
2023-04-14T02:45:16.763Z,31.38
2023-04-14T02:46:22.878Z,31.13
2023-04-14T02:47:32.850Z,33.33
2023-04-14T02:48:38.806Z,35.38
2023-04-14T02:51:09.132Z,30.20
2023-04-14T02:52:14.548Z,31.30
2023-04-14T02:53:24.147Z,31.77
2023-04-14T02:54:27.906Z,31.08
2023-04-14T02:55:35.300Z,33.92
2023-04-14T02:56:38.331Z,31.02
2023-04-14T02:57:43.689Z,30.98
2023-04-14T02:58:47.328Z,33.92
2023-04-14T02:59:54.535Z,33.33
2023-04-14T03:00:58.548Z,29.88
2023-04-14T03:02:06.277Z,35.30
2023-04-14T03:03:10.441Z,31.60
2023-04-14T03:04:18.390Z,29.25
2023-04-14T03:05:22.425Z,34.55
2023-04-14T03:06:32.092Z,35.25
2023-04-14T03:07:35.854Z,33.63
2023-04-14T03:08:43.353Z,36.03
2023-04-14T03:09:49.772Z,34.15
2023-04-14T03:10:57.459Z,29.25
2023-04-14T03:12:02.205Z,30.05
2023-04-14T03:13:09.971Z,32.08
2023-04-14T03:14:14.230Z,32.90
2023-04-14T03:15:21.854Z,30.77
2023-04-14T03:16:26.639Z,28.80
2023-04-14T03:17:32.881Z,32.75
2023-04-14T03:18:37.642Z,30.55
2023-04-14T03:19:43.795Z,30.98
2023-04-14T03:20:47.352Z,34.72
2023-04-14T03:21:56.294Z,29.95
2023-04-14T03:23:05.491Z,31.60
2023-04-14T03:24:14.409Z,29.58
2023-04-14T03:25:18.252Z,30.38
2023-04-14T03:26:28.948Z,31.50
2023-04-14T03:27:33.666Z,32.65
2023-04-14T03:28:41.651Z,35.00
2023-04-14T03:29:48.592Z,32.20
2023-04-14T03:30:56.472Z,30.67
2023-04-14T03:32:01.998Z,29.13
2023-04-14T03:33:12.235Z,32.97
2023-04-14T03:34:17.030Z,28.52
2023-04-14T03:35:24.054Z,29.33
2023-04-14T03:36:30.477Z,32.83
2023-04-14T03:37:40.155Z,27.98
2023-04-14T03:38:47.395Z,28.55
2023-04-14T03:39:52.837Z,29.35
2023-04-14T03:41:04.003Z,30.08
2023-04-14T03:42:11.612Z,31.33
2023-04-14T03:43:20.400Z,33.30
2023-04-14T03:44:27.796Z,34.53
2023-04-14T03:45:32.647Z,30.77
2023-04-14T03:46:38.566Z,30.30
2023-04-14T03:47:41.637Z,29.58
2023-04-14T03:48:50.682Z,29.90
2023-04-14T03:49:57.652Z,29.52
2023-04-14T03:51:05.221Z,29.85
2023-04-14T03:52:12.030Z,32.83
2023-04-14T03:54:44.709Z,36.45
2023-04-14T03:56:02.898Z,41.20
2023-04-14T03:57:11.716Z,34.95
2023-04-14T03:58:17.239Z,28.98
2023-04-14T03:59:25.093Z,28.05
2023-04-14T04:00:30.090Z,29.27
2023-04-14T04:01:37.914Z,28.42
2023-04-14T04:02:42.109Z,27.75
2023-04-14T04:03:48.890Z,29.52
2023-04-14T04:04:53.546Z,29.83
2023-04-14T04:05:59.262Z,24.63
2023-04-14T04:07:02.505Z,24.38
2023-04-14T04:08:10.183Z,22.67
2023-04-14T04:09:16.354Z,21.42
2023-04-14T04:10:25.877Z,22.23
2023-04-14T04:11:30.733Z,27.17
2023-04-14T04:12:37.230Z,28.30
2023-04-14T04:13:43.040Z,26.23
2023-04-14T04:14:48.886Z,27.92
2023-04-14T04:15:52.306Z,24.60
2023-04-14T04:17:00.094Z,25.38
2023-04-14T04:18:07.307Z,24.13
2023-04-14T04:19:14.445Z,24.00
2023-04-14T04:20:18.539Z,21.08
2023-04-14T04:21:25.084Z,22.70
2023-04-14T04:22:29.594Z,22.13
2023-04-14T04:23:38.743Z,23.25
2023-04-14T04:24:43.132Z,25.95
2023-04-14T04:25:51.748Z,25.65
2023-04-14T04:26:56.332Z,27.27
2023-04-14T04:28:03.190Z,26.27
2023-04-14T04:29:07.386Z,24.83
2023-04-14T04:30:14.917Z,25.00
2023-04-14T04:31:20.236Z,26.40
2023-04-14T04:32:27.301Z,29.30
2023-04-14T04:33:32.249Z,30.13
2023-04-14T04:34:38.690Z,27.23
2023-04-14T04:35:43.733Z,31.63
2023-04-14T04:36:50.204Z,33.13
2023-04-14T04:37:54.146Z,34.80
2023-04-14T04:39:00.659Z,33.83
2023-04-14T04:40:04.716Z,36.35
2023-04-14T04:41:24.666Z,57.58
2023-04-14T04:42:42.939Z,63.10
2023-04-14T04:44:01.825Z,47.17
2023-04-14T04:45:07.382Z,58.47
2023-04-14T04:46:29.712Z,57.95
2023-04-14T04:47:35.688Z,59.67
2023-04-14T04:50:42.287Z,54.03
2023-04-14T04:51:44.968Z,58.40
2023-04-14T04:52:50.171Z,64.03
2023-04-14T04:53:53.046Z,51.38
2023-04-14T04:54:58.218Z,55.63
2023-04-14T04:56:00.755Z,45.35
2023-04-14T04:57:08.446Z,46.28
2023-04-14T04:58:11.022Z,44.38
2023-04-14T04:59:16.528Z,40.92
2023-04-14T05:00:23.164Z,44.67
2023-04-14T05:01:28.218Z,42.95
2023-04-14T05:02:30.866Z,36.40
2023-04-14T05:03:36.119Z,39.35
2023-04-14T05:04:38.727Z,45.58
2023-04-14T05:05:43.759Z,47.88
2023-04-14T05:06:45.968Z,46.22
2023-04-14T05:07:51.005Z,48.95
2023-04-14T05:08:53.845Z,42.85
2023-04-14T05:09:58.822Z,50.13
2023-04-14T05:11:01.472Z,43.22
2023-04-14T05:12:09.124Z,38.03
2023-04-14T05:13:11.656Z,43.50
2023-04-14T05:14:16.591Z,39.97
2023-04-14T05:15:18.970Z,36.38
2023-04-14T05:16:24.207Z,38.75
2023-04-14T05:17:27.464Z,38.60
2023-04-14T05:18:32.940Z,38.30
2023-04-14T05:19:39.250Z,43.08
2023-04-14T05:20:41.534Z,40.58
2023-04-14T05:22:10.131Z,41.90
2023-04-14T05:23:13.633Z,44.08
2023-04-14T05:24:18.908Z,40.15
2023-04-14T05:25:21.680Z,45.17
2023-04-14T05:26:49.114Z,45.65
2023-04-14T05:27:51.987Z,41.10
2023-04-14T05:28:56.853Z,41.17
2023-04-14T05:29:59.095Z,42.70
2023-04-14T05:31:04.195Z,42.03
2023-04-14T05:32:06.732Z,43.88
2023-04-14T05:33:11.902Z,45.13
2023-04-14T05:34:17.504Z,36.85
2023-04-14T05:35:20.304Z,39.20
2023-04-14T05:36:25.548Z,44.67
2023-04-14T05:37:30.253Z,37.40
2023-04-14T05:38:35.202Z,33.35
2023-04-14T05:39:37.412Z,36.38
2023-04-14T05:40:42.775Z,34.30
2023-04-14T05:41:47.804Z,35.88
2023-04-14T05:42:53.251Z,34.08
2023-04-14T05:43:58.993Z,32.30
2023-04-14T05:45:01.345Z,27.58
2023-04-14T05:46:06.348Z,27.02
2023-04-14T05:47:09.174Z,32.40
2023-04-14T05:48:14.591Z,26.63
2023-04-14T05:49:19.788Z,29.90
2023-04-14T05:50:22.609Z,31.80
2023-04-14T05:51:28.029Z,35.55
2023-04-14T05:52:30.581Z,30.02
2023-04-14T05:53:35.828Z,34.42
2023-04-14T05:54:38.107Z,45.83
2023-04-14T05:55:44.305Z,36.10
2023-04-14T05:56:46.689Z,39.15
2023-04-14T05:57:54.364Z,36.05
2023-04-14T05:58:56.985Z,33.63
2023-04-14T06:00:01.757Z,41.47
2023-04-14T06:01:04.594Z,27.85
2023-04-14T06:02:09.538Z,34.08
2023-04-14T06:03:12.126Z,37.88
2023-04-14T06:04:17.762Z,26.75
2023-04-14T06:05:20.365Z,26.17
2023-04-14T06:06:26.464Z,25.75
2023-04-14T06:07:28.909Z,29.42
2023-04-14T06:08:34.310Z,30.38
2023-04-14T06:09:39.029Z,29.58
2023-04-14T06:10:44.345Z,28.25
2023-04-14T06:11:47.113Z,27.83
2023-04-14T06:12:54.889Z,26.25
2023-04-14T06:13:57.165Z,28.58
2023-04-14T06:15:03.739Z,28.20
2023-04-14T06:18:10.619Z,30.25
2023-04-14T06:19:41.632Z,42.00
2023-04-14T06:20:47.667Z,29.55
2023-04-14T06:21:50.903Z,53.97
2023-04-14T06:22:56.582Z,32.08
2023-04-14T06:24:00.465Z,42.60
2023-04-14T06:25:06.857Z,25.48
2023-04-14T06:26:13.603Z,42.47
2023-04-14T06:27:17.624Z,26.42
2023-04-14T06:28:26.747Z,24.23
2023-04-14T06:29:29.920Z,24.92
2023-04-14T06:30:35.752Z,25.15
2023-04-14T06:31:40.029Z,32.83
2023-04-14T06:32:47.368Z,30.08
2023-04-14T06:33:52.834Z,30.20
2023-04-14T06:34:57.598Z,30.20
2023-04-14T06:36:03.216Z,29.13
2023-04-14T06:37:05.967Z,26.13
2023-04-14T06:38:10.999Z,24.75
2023-04-14T06:39:14.153Z,32.58
2023-04-14T06:40:19.593Z,26.02
2023-04-14T06:41:22.164Z,24.60
2023-04-14T06:42:27.716Z,19.02
2023-04-14T06:43:33.538Z,28.80
2023-04-14T06:44:38.998Z,24.52
2023-04-14T06:45:42.180Z,27.05
2023-04-14T06:46:47.401Z,22.70
2023-04-14T06:47:50.265Z,25.80
2023-04-14T06:48:56.238Z,30.30
2023-04-14T06:51:36.739Z,49.72
2023-04-14T06:52:43.021Z,31.92
2023-04-14T06:53:48.119Z,37.40
2023-04-14T06:54:51.253Z,30.65
2023-04-14T06:55:59.652Z,25.65
2023-04-14T06:57:05.271Z,27.33
2023-04-14T06:58:08.800Z,27.85
2023-04-14T06:59:17.279Z,22.58
2023-04-14T07:00:20.405Z,22.80
2023-04-14T07:01:26.156Z,22.25
2023-04-14T07:02:29.496Z,22.77
2023-04-14T07:03:35.589Z,23.80
2023-04-14T07:04:38.731Z,20.83
2023-04-14T07:05:44.047Z,21.00
2023-04-14T07:06:46.911Z,21.20
2023-04-14T07:07:52.798Z,22.63
2023-04-14T07:08:58.456Z,22.50
2023-04-14T07:10:01.833Z,19.50
2023-04-14T07:11:09.105Z,22.08
2023-04-14T07:12:17.188Z,19.08
2023-04-14T07:13:20.369Z,24.52
2023-04-14T07:14:28.914Z,20.88
2023-04-14T07:15:31.302Z,21.05
2023-04-14T07:16:36.599Z,22.33
2023-04-14T07:17:42.806Z,23.30
2023-04-14T07:18:45.865Z,21.73
2023-04-14T07:19:51.901Z,23.73
2023-04-14T07:20:54.766Z,26.27
2023-04-14T07:22:00.464Z,27.52
2023-04-14T07:23:06.211Z,24.00
2023-04-14T07:24:09.793Z,22.25
2023-04-14T07:25:15.069Z,22.15
2023-04-14T07:26:17.768Z,19.77
2023-04-14T07:27:23.250Z,27.63
2023-04-14T07:28:27.317Z,17.60
2023-04-14T07:29:34.639Z,16.90
2023-04-14T07:30:37.067Z,16.98
2023-04-14T07:31:41.726Z,20.25
2023-04-14T07:32:46.846Z,17.08
2023-04-14T07:33:51.889Z,17.67
2023-04-14T07:34:58.338Z,17.45
2023-04-14T07:36:03.548Z,17.33
2023-04-14T07:37:08.714Z,16.05
2023-04-14T07:38:13.360Z,15.57
2023-04-14T07:39:22.406Z,18.27
2023-04-14T07:40:24.492Z,16.45
2023-04-14T07:41:29.925Z,15.27
2023-04-14T07:42:34.534Z,16.23
2023-04-14T07:43:36.602Z,17.90
2023-04-14T07:44:44.161Z,15.82
2023-04-14T07:45:46.320Z,14.82
2023-04-14T07:46:51.199Z,15.20
2023-04-14T07:47:55.286Z,17.52
2023-04-14T07:49:03.809Z,15.55
2023-04-14T07:50:10.172Z,16.13
2023-04-14T07:51:12.427Z,15.52
2023-04-14T07:52:17.198Z,16.17
2023-04-14T07:53:19.283Z,15.57
2023-04-14T07:54:23.961Z,17.77
2023-04-14T07:55:27.595Z,18.88
2023-04-14T07:56:32.361Z,17.65
2023-04-14T07:57:35.204Z,16.60
2023-04-14T07:58:40.306Z,16.17
2023-04-14T07:59:45.037Z,18.40
2023-04-14T08:00:49.683Z,18.40
2023-04-14T08:01:54.532Z,17.88
2023-04-14T08:02:56.891Z,21.17
2023-04-14T08:04:01.858Z,19.17
2023-04-14T08:05:04.437Z,17.70
2023-04-14T08:06:09.738Z,16.70
2023-04-14T08:07:12.283Z,17.92
2023-04-14T08:08:17.067Z,17.10
2023-04-14T08:09:21.733Z,19.83
2023-04-14T08:10:23.818Z,18.17
2023-04-14T08:11:28.468Z,19.80
2023-04-14T08:12:30.540Z,19.75
2023-04-14T08:13:35.194Z,16.25
2023-04-14T08:14:40.333Z,19.02
2023-04-14T08:15:44.987Z,23.00
2023-04-14T08:16:49.885Z,16.98
2023-04-14T08:17:52.358Z,18.75
2023-04-14T08:18:58.112Z,24.13
2023-04-14T08:20:00.396Z,19.60
2023-04-14T08:21:05.064Z,19.83
2023-04-14T08:22:07.201Z,16.13
2023-04-14T08:23:11.908Z,19.40
2023-04-14T08:24:16.618Z,21.50
2023-04-14T08:25:18.798Z,21.08
2023-04-14T08:26:23.942Z,16.23
2023-04-14T08:27:26.082Z,15.20
2023-04-14T08:28:31.306Z,14.07
2023-04-14T08:29:33.407Z,16.98
2023-04-14T08:30:38.231Z,21.13
2023-04-14T08:31:45.767Z,15.98
2023-04-14T08:32:47.914Z,14.18
2023-04-14T08:33:53.282Z,15.90
2023-04-14T08:35:36.325Z,16.40
2023-04-14T08:36:20.318Z,16.05
2023-04-14T08:37:23.176Z,16.80
2023-04-14T08:38:27.839Z,16.35
2023-04-14T08:39:29.962Z,19.63
2023-04-14T08:40:38.999Z,14.60
2023-04-14T08:41:45.044Z,19.45
2023-04-14T08:42:49.765Z,20.45
2023-04-14T08:43:51.839Z,14.70
2023-04-14T08:44:56.545Z,13.63
2023-04-14T08:46:02.871Z,19.75
2023-04-14T08:47:08.309Z,18.58
2023-04-14T08:48:17.555Z,17.13
2023-04-14T08:49:38.760Z,20.95
2023-04-14T08:50:51.558Z,18.77
2023-04-14T08:51:57.997Z,14.98
2023-04-14T08:53:05.997Z,19.63
2023-04-14T08:54:10.551Z,15.75
2023-04-14T08:55:16.606Z,16.17
2023-04-14T08:56:21.675Z,17.55
2023-04-14T08:57:29.135Z,15.75
2023-04-14T08:58:34.434Z,16.73
2023-04-14T08:59:40.625Z,18.88
2023-04-14T09:00:45.412Z,20.13
2023-04-14T09:01:47.937Z,21.70
2023-04-14T09:02:56.411Z,20.08
2023-04-14T09:03:59.127Z,22.13
2023-04-14T09:05:04.554Z,18.88
2023-04-14T09:06:09.276Z,20.40
2023-04-14T09:07:14.729Z,17.70
2023-04-14T09:08:17.337Z,19.10
2023-04-14T09:09:22.272Z,19.00
2023-04-14T09:10:24.874Z,17.15
2023-04-14T09:11:31.124Z,636.58
2023-04-14T09:12:34.277Z,626.88
2023-04-14T09:13:39.564Z,633.92
2023-04-14T09:14:46.688Z,686.47
2023-04-14T09:15:49.900Z,694.38
2023-04-14T09:16:56.575Z,690.95
2023-04-14T09:18:04.155Z,692.17
2023-04-14T09:19:30.867Z,721.03
2023-04-14T09:20:41.012Z,653.40
2023-04-14T09:21:52.653Z,666.78
2023-04-14T09:22:59.331Z,649.78
2023-04-14T09:24:01.941Z,668.95
2023-04-14T09:25:07.925Z,378.77
2023-04-14T09:26:13.733Z,774.22
2023-04-14T09:27:18.528Z,714.20
2023-04-14T09:28:23.354Z,840.30
2023-04-14T09:29:29.633Z,833.38
2023-04-14T09:30:34.514Z,827.70
2023-04-14T09:31:37.145Z,808.30
2023-04-14T09:32:43.242Z,872.72
2023-04-14T09:33:52.921Z,360.48
2023-04-14T09:34:58.626Z,238.95
2023-04-14T09:36:00.954Z,868.78
2023-04-14T09:37:07.654Z,838.00
2023-04-14T09:38:09.723Z,827.60
2023-04-14T09:39:20.488Z,831.70
2023-04-14T09:40:32.234Z,696.88
2023-04-14T09:41:37.200Z,739.63
2023-04-14T09:42:43.928Z,731.42
2023-04-14T09:43:46.183Z,739.17
2023-04-14T09:44:57.941Z,21.85
2023-04-14T09:47:10.191Z,67.70
2023-04-14T09:48:13.264Z,693.40
2023-04-14T09:49:20.523Z,14.13
2023-04-14T09:50:25.266Z,17.33
2023-04-14T09:51:29.081Z,13.27
2023-04-14T09:52:41.973Z,13.68
2023-04-14T09:53:45.683Z,14.82
2023-04-14T09:54:58.039Z,12.70
2023-04-14T09:56:03.387Z,24.77
2023-04-14T09:57:08.185Z,15.82
2023-04-14T09:58:10.938Z,15.15
2023-04-14T09:59:15.703Z,13.65
2023-04-14T10:00:25.310Z,12.95
2023-04-14T10:01:31.550Z,15.63
2023-04-14T10:02:51.219Z,13.98
2023-04-14T10:03:56.148Z,19.27
2023-04-14T10:05:07.626Z,16.10
2023-04-14T10:06:19.300Z,13.85
2023-04-14T10:08:36.220Z,81.85
2023-04-14T10:09:43.046Z,16.85
2023-04-14T10:10:45.249Z,19.08
2023-04-14T10:11:49.959Z,194.73
2023-04-14T10:12:56.565Z,18.27
2023-04-14T10:14:01.121Z,17.75
2023-04-14T10:15:06.443Z,49.40
2023-04-14T10:16:09.114Z,23.17
2023-04-14T10:17:13.980Z,18.25
2023-04-14T10:18:16.352Z,22.75
2023-04-14T10:19:22.076Z,26.80
2023-04-14T10:20:29.784Z,20.42
2023-04-14T10:21:33.413Z,23.60
2023-04-14T10:22:40.871Z,30.25
2023-04-14T10:23:44.945Z,514.95
2023-04-14T10:24:50.371Z,394.88
2023-04-14T10:25:54.737Z,29.05
2023-04-14T10:27:03.224Z,20.38
2023-04-14T10:28:08.240Z,19.33
2023-04-14T10:29:12.919Z,20.38
2023-04-14T10:30:17.846Z,24.42
2023-04-14T10:31:28.783Z,21.08
2023-04-14T10:32:41.263Z,16.50
2023-04-14T10:33:46.831Z,15.82
2023-04-14T10:35:02.568Z,18.05
2023-04-14T10:36:10.069Z,19.92
2023-04-14T10:37:16.020Z,21.60
2023-04-14T10:38:18.187Z,21.73
2023-04-14T10:39:27.802Z,48.03
2023-04-14T10:40:46.568Z,19.77
2023-04-14T10:41:52.865Z,29.00
2023-04-14T10:42:56.639Z,21.65
2023-04-14T10:44:01.408Z,82.63
2023-04-14T10:45:08.764Z,30.83
2023-04-14T10:46:11.363Z,40.78
2023-04-14T10:47:26.734Z,151.93
2023-04-14T10:48:33.540Z,61.10
2023-04-14T10:49:39.962Z,46.30
2023-04-14T10:50:47.856Z,20.58
2023-04-14T10:51:55.433Z,119.55
2023-04-14T10:53:01.094Z,17.58
2023-04-14T10:54:06.893Z,202.30
2023-04-14T10:55:10.215Z,22.40
2023-04-14T10:56:15.833Z,24.88
2023-04-14T10:57:19.422Z,18.13
2023-04-14T10:58:29.739Z,22.02
2023-04-14T10:59:32.884Z,22.42
2023-04-14T11:00:41.864Z,33.30
2023-04-14T11:01:44.104Z,23.33
2023-04-14T11:02:58.865Z,20.60
2023-04-14T11:04:20.605Z,25.77
2023-04-14T11:05:22.917Z,19.83
2023-04-14T11:06:57.424Z,17.77
2023-04-14T11:08:03.177Z,27.40
2023-04-14T11:09:23.409Z,21.10
2023-04-14T11:10:32.194Z,16.80
2023-04-14T11:11:35.301Z,19.05
2023-04-14T11:12:46.122Z,16.73
2023-04-14T11:14:16.400Z,16.42
2023-04-14T11:15:18.528Z,19.50
2023-04-14T11:16:31.762Z,19.30
2023-04-14T11:17:40.591Z,19.52
2023-04-14T11:18:46.046Z,16.55
2023-04-14T11:19:48.734Z,15.95
2023-04-14T11:20:55.544Z,21.75
2023-04-14T11:21:58.174Z,15.88
2023-04-14T11:23:03.206Z,17.40
2023-04-14T11:24:08.016Z,25.65
2023-04-14T11:25:15.043Z,18.63
2023-04-14T11:26:20.029Z,16.73
2023-04-14T11:27:22.120Z,13.43
2023-04-14T11:28:31.688Z,19.45
2023-04-14T11:29:36.345Z,30.65
2023-04-14T11:30:44.699Z,50.05
2023-04-14T11:31:47.222Z,202.13
2023-04-14T11:32:54.232Z,17.98
2023-04-14T11:33:59.074Z,175.20
2023-04-14T11:35:08.132Z,23.83
2023-04-14T11:36:14.566Z,18.42
2023-04-14T11:37:16.610Z,24.75
2023-04-14T11:38:21.302Z,20.25
2023-04-14T11:39:23.711Z,18.77
2023-04-14T11:40:30.187Z,20.15
2023-04-14T11:41:33.054Z,25.52
2023-04-14T11:42:37.933Z,19.77
2023-04-14T11:43:47.278Z,27.98
2023-04-14T11:45:00.383Z,47.75
2023-04-14T11:46:08.774Z,55.63
2023-04-14T11:47:13.657Z,19.08
2023-04-14T11:48:16.970Z,851.88
2023-04-14T11:49:22.258Z,854.00
2023-04-14T11:50:24.670Z,697.60
2023-04-14T11:51:33.869Z,19.33
2023-04-14T11:52:35.948Z,42.75
2023-04-14T11:53:40.795Z,166.50
2023-04-14T11:54:43.196Z,303.02
2023-04-14T11:55:49.971Z,40.15
2023-04-14T11:56:52.200Z,211.32
2023-04-14T11:58:07.609Z,18.90
2023-04-14T11:59:10.219Z,22.83
2023-04-14T12:00:18.099Z,844.75
2023-04-14T12:01:25.572Z,250.00
2023-04-14T12:02:28.017Z,40.60
2023-04-14T12:03:35.826Z,17.88
2023-04-14T12:04:38.315Z,28.42
2023-04-14T12:05:43.456Z,444.65
2023-04-14T12:06:45.675Z,152.13
2023-04-14T12:07:51.596Z,33.17
2023-04-14T12:08:54.642Z,22.30
2023-04-14T12:09:59.402Z,22.75
2023-04-14T12:11:13.376Z,26.63
2023-04-14T12:12:20.374Z,21.30
2023-04-14T12:13:25.093Z,31.85
2023-04-14T12:14:33.586Z,22.77
2023-04-14T12:15:45.198Z,22.55
2023-04-14T12:16:50.627Z,23.02
2023-04-14T12:17:55.827Z,58.65
2023-04-14T12:19:02.032Z,22.02
2023-04-14T12:20:07.955Z,63.78
2023-04-14T12:21:13.075Z,62.15
2023-04-14T12:22:25.611Z,94.10
2023-04-14T12:23:30.298Z,198.88
2023-04-14T12:24:36.473Z,583.47
2023-04-14T12:25:41.769Z,725.92
2023-04-14T12:26:46.643Z,85.28
2023-04-14T12:27:54.013Z,65.35
2023-04-14T12:29:02.850Z,54.05
2023-04-14T12:30:09.914Z,29.13
2023-04-14T12:31:17.446Z,25.55
2023-04-14T12:32:21.578Z,23.35
2023-04-14T12:33:26.846Z,21.58
2023-04-14T12:34:32.662Z,17.85
2023-04-14T12:35:55.183Z,13.70
2023-04-14T12:36:57.756Z,15.93
2023-04-14T12:38:02.581Z,18.80
2023-04-14T12:39:05.617Z,17.10
2023-04-14T12:40:12.572Z,23.05
2023-04-14T12:41:24.801Z,24.38
2023-04-14T12:42:30.553Z,23.90
2023-04-14T12:43:36.981Z,23.77
2023-04-14T12:44:39.030Z,25.42
2023-04-14T12:45:44.926Z,25.85
2023-04-14T12:46:51.533Z,20.50
2023-04-14T12:48:00.323Z,23.02
2023-04-14T12:49:03.062Z,20.65
2023-04-14T12:50:28.299Z,18.40
2023-04-14T12:51:41.888Z,19.48
2023-04-14T12:52:44.782Z,16.77
2023-04-14T12:53:55.330Z,18.30
2023-04-14T12:54:57.474Z,16.55
2023-04-14T12:56:09.828Z,15.77
2023-04-14T12:57:12.618Z,22.92
2023-04-14T12:58:17.236Z,29.55
2023-04-14T12:59:22.374Z,19.88
2023-04-14T13:00:27.381Z,24.20
2023-04-14T13:01:32.137Z,52.70
2023-04-14T13:02:37.556Z,31.52
2023-04-14T13:03:47.788Z,30.75
2023-04-14T13:04:50.652Z,18.70
2023-04-14T13:05:56.730Z,21.98
2023-04-14T13:06:58.813Z,18.92
2023-04-14T13:08:03.468Z,16.10
2023-04-14T13:09:17.413Z,19.38
2023-04-14T13:10:19.540Z,20.40
2023-04-14T13:11:26.529Z,18.15
2023-04-14T13:12:28.583Z,18.23
2023-04-14T13:13:33.195Z,18.42
2023-04-14T13:14:35.260Z,21.35
2023-04-14T13:16:15.260Z,20.67
2023-04-14T13:17:08.831Z,19.52
2023-04-14T13:18:16.139Z,24.90
2023-04-14T13:19:18.193Z,28.17
2023-04-14T13:20:22.772Z,22.98
2023-04-14T13:21:27.433Z,24.73
2023-04-14T13:22:32.053Z,23.60
2023-04-14T13:23:34.182Z,20.77
2023-04-14T13:24:39.163Z,21.88
2023-04-14T13:26:10.645Z,31.02
2023-04-14T13:27:15.783Z,17.23
2023-04-14T13:28:17.915Z,17.63
2023-04-14T13:29:22.551Z,20.27
2023-04-14T13:30:24.579Z,36.08
2023-04-14T13:31:29.322Z,76.97
2023-04-14T13:32:33.977Z,256.63
2023-04-14T13:33:41.249Z,87.30
2023-04-14T13:34:45.927Z,261.88
2023-04-14T13:35:48.325Z,186.82
2023-04-14T13:36:52.991Z,81.57
2023-04-14T13:37:54.981Z,961.90
2023-04-14T13:39:00.447Z,20.15
2023-04-14T13:40:08.325Z,22.38
2023-04-14T13:41:10.875Z,26.60
2023-04-14T13:42:15.529Z,28.42
2023-04-14T13:43:18.739Z,23.83
2023-04-14T13:44:23.682Z,19.83
2023-04-14T13:45:25.816Z,39.17
2023-04-14T13:46:36.200Z,32.80
2023-04-14T13:47:45.121Z,255.50
2023-04-14T13:48:54.084Z,77.90
2023-04-14T13:49:56.163Z,33.20
2023-04-14T13:51:02.049Z,20.67
2023-04-14T13:52:04.101Z,20.67
2023-04-14T13:53:09.182Z,16.27
2023-04-14T13:54:14.165Z,16.15
2023-04-14T13:55:16.219Z,15.57
2023-04-14T13:56:33.550Z,14.57
2023-04-14T13:57:38.456Z,13.15
2023-04-14T13:58:40.473Z,14.88
2023-04-14T13:59:45.077Z,14.50
2023-04-14T14:00:47.092Z,12.25
2023-04-14T14:01:51.806Z,13.93
2023-04-14T14:02:56.966Z,15.10
2023-04-14T14:04:04.731Z,12.73
2023-04-14T14:05:07.993Z,15.57
2023-04-14T14:06:12.631Z,14.90
2023-04-14T14:07:14.696Z,17.13
2023-04-14T14:08:19.404Z,19.52
2023-04-14T14:09:21.397Z,19.10
2023-04-14T14:10:26.382Z,22.13
2023-04-14T14:11:28.616Z,15.70
2023-04-14T14:12:35.151Z,16.60
2023-04-14T14:13:41.338Z,16.85
2023-04-14T14:14:43.472Z,15.30
2023-04-14T14:15:48.742Z,15.73
2023-04-14T14:16:51.402Z,15.68
2023-04-14T14:17:56.158Z,14.68
2023-04-14T14:18:58.221Z,15.38
2023-04-14T14:20:05.924Z,13.50
2023-04-14T14:21:07.986Z,14.20
2023-04-14T14:22:12.653Z,15.68
2023-04-14T14:23:17.385Z,14.80
2023-04-14T14:24:19.445Z,18.58
2023-04-14T14:25:26.921Z,16.50
2023-04-14T14:26:28.989Z,17.13
2023-04-14T14:27:34.089Z,16.63
2023-04-14T14:28:36.221Z,16.45
2023-04-14T14:29:40.854Z,17.55